Time;durP1;ratioP1;P1;durP2;ratioP2;P2;SDS_P1;SDS_P2;PMS_P1;PMS_P2;Temp;Humidity;BMP_temperature;BMP_pressure;BME280_temperature;BME280_humidity;BME280_pressure;Samples;Min_cycle;Max_cycle;Signal;HPM_P1;HPM_P2
2023/11/13 00:02:13;;;;;;;30.93;16.67;;;;;;;;;;5025829;28;20193;-67
2023/11/13 00:04:39;;;;;;;28.43;14.90;;;;;;;;;;5034205;28;20191;-66
2023/11/13 00:07:05;;;;;;;33.07;16.13;;;;;;;;;;5029643;28;20186;-66
2023/11/13 00:09:31;;;;;;;33.43;16.73;;;;;;;;;;5033995;28;20247;-66
2023/11/13 00:11:56;;;;;;;26.20;15.03;;;;;;;;;;5040795;28;20246;-66
2023/11/13 00:14:22;;;;;;;34.93;16.33;;;;;;;;;;5039245;28;20229;-66
2023/11/13 00:16:48;;;;;;;29.60;15.73;;;;;;;;;;5039022;28;20722;-66
2023/11/13 00:19:14;;;;;;;31.50;15.47;;;;;;;;;;5036729;28;20678;-66
2023/11/13 00:21:39;;;;;;;32.03;15.63;;;;;;;;;;5049094;28;20269;-66
2023/11/13 00:24:06;;;;;;;28.10;15.93;;;;;;;;;;5048931;28;20606;-66
2023/11/13 00:26:32;;;;;;;31.83;15.23;;;;;;;;;;5053816;28;20571;-66
2023/11/13 00:28:58;;;;;;;24.37;13.50;;;;;;;;;;5058965;28;20207;-66
2023/11/13 00:31:23;;;;;;;27.73;14.97;;;;;;;;;;5044157;28;20316;-66
2023/11/13 00:33:49;;;;;;;29.30;15.53;;;;;;;;;;5036015;28;20341;-66
2023/11/13 00:36:15;;;;;;;39.13;15.17;;;;;;;;;;5042498;28;20691;-66
2023/11/13 00:38:40;;;;;;;34.43;16.83;;;;;;;;;;5041484;28;20248;-66
2023/11/13 00:41:13;;;;;;;29.23;15.00;;;;;;;;;;5037492;28;20629;-66
2023/11/13 00:43:39;;;;;;;32.57;15.33;;;;;;;;;;5040477;28;20194;-66
2023/11/13 00:46:05;;;;;;;24.93;13.83;;;;;;;;;;5040849;28;20512;-66
2023/11/13 00:48:31;;;;;;;28.50;14.70;;;;;;;;;;5042706;28;20194;-66
2023/11/13 00:50:56;;;;;;;27.97;15.13;;;;;;;;;;5037514;28;20190;-66
2023/11/13 00:53:22;;;;;;;27.47;15.60;;;;;;;;;;5037948;28;20637;-66
2023/11/13 00:55:48;;;;;;;30.03;15.27;;;;;;;;;;5041049;28;20299;-66
2023/11/13 00:58:13;;;;;;;29.97;15.53;;;;;;;;;;5037446;28;20259;-66
2023/11/13 01:00:39;;;;;;;28.77;15.00;;;;;;;;;;5048111;28;20197;-66
2023/11/13 01:03:04;;;;;;;29.83;15.83;;;;;;;;;;5033668;28;20473;-66
2023/11/13 01:05:30;;;;;;;33.67;16.10;;;;;;;;;;5046896;28;20193;-66
2023/11/13 01:07:56;;;;;;;32.67;15.13;;;;;;;;;;5042581;28;20593;-66
2023/11/13 01:10:21;;;;;;;29.17;14.60;;;;;;;;;;5033483;28;20301;-66
2023/11/13 01:12:46;;;;;;;31.20;15.67;;;;;;;;;;5040654;28;20229;-66
2023/11/13 01:15:13;;;;;;;35.63;15.93;;;;;;;;;;5038842;28;20764;-66
2023/11/13 01:17:38;;;;;;;36.70;16.43;;;;;;;;;;5036961;28;20515;-66
2023/11/13 01:20:05;;;;;;;37.77;16.27;;;;;;;;;;5028714;28;20297;-66
2023/11/13 01:22:31;;;;;;;36.53;16.90;;;;;;;;;;5035018;28;20185;-66
2023/11/13 01:24:57;;;;;;;37.30;16.73;;;;;;;;;;5031398;28;20401;-67
2023/11/13 01:27:22;;;;;;;32.17;16.60;;;;;;;;;;5029967;28;20233;-66
2023/11/13 01:29:48;;;;;;;35.93;17.37;;;;;;;;;;5042673;28;20719;-66
2023/11/13 01:32:13;;;;;;;33.37;17.23;;;;;;;;;;5045934;28;20635;-66
2023/11/13 01:34:39;;;;;;;34.90;17.83;;;;;;;;;;5049184;28;20268;-66
2023/11/13 01:37:05;;;;;;;39.43;16.57;;;;;;;;;;5041731;28;20194;-66
2023/11/13 01:39:30;;;;;;;32.10;15.83;;;;;;;;;;5040914;28;20197;-66
2023/11/13 01:41:56;;;;;;;36.07;17.13;;;;;;;;;;5040930;28;20197;-67
2023/11/13 01:44:21;;;;;;;32.13;16.50;;;;;;;;;;5043068;28;20655;-66
2023/11/13 01:46:47;;;;;;;33.17;15.23;;;;;;;;;;5038776;28;20216;-66
2023/11/13 01:49:13;;;;;;;29.17;16.17;;;;;;;;;;5033468;28;20190;-66
2023/11/13 01:51:39;;;;;;;34.17;16.80;;;;;;;;;;5038147;28;20186;-66
2023/11/13 01:54:06;;;;;;;38.00;16.93;;;;;;;;;;5040486;28;20527;-66
2023/11/13 01:56:33;;;;;;;33.53;16.17;;;;;;;;;;5035284;28;20193;-66
2023/11/13 01:58:59;;;;;;;36.00;16.83;;;;;;;;;;5033489;28;20215;-66
2023/11/13 02:01:25;;;;;;;37.30;16.20;;;;;;;;;;5039588;28;20201;-66
2023/11/13 02:03:52;;;;;;;37.47;16.40;;;;;;;;;;5038473;28;20188;-66
2023/11/13 02:06:18;;;;;;;35.87;15.73;;;;;;;;;;5028137;28;20285;-66
2023/11/13 02:08:43;;;;;;;33.83;15.67;;;;;;;;;;5040642;28;20307;-66
2023/11/13 02:11:10;;;;;;;31.53;15.43;;;;;;;;;;5032106;28;20197;-66
2023/11/13 02:13:37;;;;;;;29.43;14.90;;;;;;;;;;5028774;28;20511;-66
2023/11/13 02:16:02;;;;;;;30.03;15.03;;;;;;;;;;5030387;28;20355;-66
2023/11/13 02:18:28;;;;;;;32.40;16.07;;;;;;;;;;5038933;28;20348;-66
2023/11/13 02:20:53;;;;;;;38.17;16.70;;;;;;;;;;5033093;28;20655;-66
2023/11/13 02:23:19;;;;;;;38.07;16.60;;;;;;;;;;5029552;28;20197;-66
2023/11/13 02:25:51;;;;;;;41.37;17.67;;;;;;;;;;5038372;28;20179;-66
2023/11/13 02:28:16;;;;;;;38.60;18.20;;;;;;;;;;5040155;28;20186;-66
2023/11/13 02:30:43;;;;;;;38.83;18.00;;;;;;;;;;5034502;28;20721;-66
2023/11/13 02:33:08;;;;;;;37.60;16.87;;;;;;;;;;5035118;28;20653;-66
2023/11/13 02:35:34;;;;;;;33.33;17.23;;;;;;;;;;5043098;28;20185;-66
2023/11/13 02:38:00;;;;;;;30.20;16.47;;;;;;;;;;5042096;28;20196;-66
2023/11/13 02:40:25;;;;;;;32.57;16.40;;;;;;;;;;5040648;28;20208;-66
2023/11/13 02:42:51;;;;;;;34.80;16.17;;;;;;;;;;5032957;28;20545;-66
2023/11/13 02:45:17;;;;;;;32.17;15.23;;;;;;;;;;5040448;28;20693;-66
2023/11/13 02:47:42;;;;;;;36.33;15.30;;;;;;;;;;5028226;28;20508;-66
2023/11/13 02:50:09;;;;;;;31.63;15.50;;;;;;;;;;5032368;28;20182;-66
2023/11/13 02:52:35;;;;;;;31.17;15.83;;;;;;;;;;5029037;28;20544;-66
2023/11/13 02:55:01;;;;;;;31.70;15.27;;;;;;;;;;5028694;28;20194;-66
2023/11/13 02:57:26;;;;;;;32.63;15.33;;;;;;;;;;5035617;28;20193;-66
2023/11/13 02:59:52;;;;;;;31.40;15.37;;;;;;;;;;5034965;28;20196;-66
2023/11/13 03:02:18;;;;;;;28.97;15.20;;;;;;;;;;5042800;28;20192;-66
2023/11/13 03:04:43;;;;;;;31.70;15.23;;;;;;;;;;5033508;28;20492;-66
2023/11/13 03:07:09;;;;;;;37.17;15.70;;;;;;;;;;5027591;28;20197;-66
2023/11/13 03:09:34;;;;;;;28.43;15.97;;;;;;;;;;5036896;28;20200;-66
2023/11/13 03:12:00;;;;;;;31.03;15.60;;;;;;;;;;5042417;28;20624;-66
2023/11/13 03:14:25;;;;;;;35.83;17.33;;;;;;;;;;5047593;28;20529;-66
2023/11/13 03:16:51;;;;;;;35.67;18.23;;;;;;;;;;5041451;28;20232;-66
2023/11/13 03:19:16;;;;;;;39.37;16.80;;;;;;;;;;5030780;28;20272;-66
2023/11/13 03:21:41;;;;;;;40.20;17.80;;;;;;;;;;5036821;28;20196;-66
2023/11/13 03:24:07;;;;;;;33.80;16.17;;;;;;;;;;5034576;28;20253;-66
2023/11/13 03:26:33;;;;;;;41.43;17.43;;;;;;;;;;5043926;28;20208;-66
2023/11/13 03:28:58;;;;;;;36.90;16.70;;;;;;;;;;5044474;28;20272;-67
2023/11/13 03:31:23;;;;;;;35.67;16.67;;;;;;;;;;5030380;28;20233;-66
2023/11/13 03:33:49;;;;;;;37.20;16.73;;;;;;;;;;5036246;28;20218;-66
2023/11/13 03:36:14;;;;;;;35.37;16.87;;;;;;;;;;5044830;28;20185;-66
2023/11/13 03:38:40;;;;;;;33.40;17.07;;;;;;;;;;5029493;28;20272;-66
2023/11/13 03:41:06;;;;;;;32.33;15.33;;;;;;;;;;5039624;28;20201;-66
2023/11/13 03:43:32;;;;;;;38.77;17.13;;;;;;;;;;5032472;28;20304;-66
2023/11/13 03:45:58;;;;;;;30.47;15.97;;;;;;;;;;5031349;28;20186;-66
2023/11/13 03:48:23;;;;;;;38.83;16.40;;;;;;;;;;5030707;28;20186;-66
2023/11/13 03:50:49;;;;;;;32.57;17.20;;;;;;;;;;5035308;28;20566;-66
2023/11/13 03:53:14;;;;;;;36.73;18.53;;;;;;;;;;5032163;28;20216;-66
2023/11/13 03:55:40;;;;;;;40.70;17.80;;;;;;;;;;5034813;28;20209;-66
2023/11/13 03:58:05;;;;;;;36.37;17.23;;;;;;;;;;5045274;28;20197;-66
2023/11/13 04:00:31;;;;;;;37.93;17.83;;;;;;;;;;5039971;28;20294;-66
2023/11/13 04:02:56;;;;;;;34.50;16.80;;;;;;;;;;5039873;28;20251;-66
2023/11/13 04:05:22;;;;;;;34.07;18.17;;;;;;;;;;5031613;28;20197;-66
2023/11/13 04:07:47;;;;;;;34.53;17.33;;;;;;;;;;5030287;28;20665;-66
2023/11/13 04:10:14;;;;;;;41.00;18.17;;;;;;;;;;5037229;28;20212;-66
2023/11/13 04:12:41;;;;;;;34.03;17.70;;;;;;;;;;5042904;28;20571;-66
2023/11/13 04:15:07;;;;;;;37.83;18.37;;;;;;;;;;5033784;28;20674;-66
2023/11/13 04:17:33;;;;;;;39.43;18.67;;;;;;;;;;5032420;28;20206;-66
2023/11/13 04:19:59;;;;;;;34.83;18.43;;;;;;;;;;5031244;28;20209;-66
2023/11/13 04:22:26;;;;;;;36.47;17.47;;;;;;;;;;5037964;28;20222;-66
2023/11/13 04:24:51;;;;;;;38.53;19.07;;;;;;;;;;5036525;28;20186;-66
2023/11/13 04:27:17;;;;;;;38.97;20.07;;;;;;;;;;5035531;28;20212;-66
2023/11/13 04:29:42;;;;;;;41.80;20.63;;;;;;;;;;5049308;28;20626;-66
2023/11/13 04:32:08;;;;;;;37.20;19.90;;;;;;;;;;5045754;28;20248;-66
2023/11/13 04:34:33;;;;;;;43.80;20.67;;;;;;;;;;5032930;28;20764;-66
2023/11/13 04:36:58;;;;;;;43.03;19.97;;;;;;;;;;5047705;28;20196;-66
2023/11/13 04:39:24;;;;;;;48.50;19.97;;;;;;;;;;5032504;28;20710;-66
2023/11/13 04:41:49;;;;;;;37.13;19.07;;;;;;;;;;5048429;28;20612;-67
2023/11/13 04:44:15;;;;;;;35.10;18.67;;;;;;;;;;5030415;28;20193;-66
2023/11/13 04:46:41;;;;;;;37.67;17.97;;;;;;;;;;5029727;28;20595;-66
2023/11/13 04:49:07;;;;;;;40.10;19.10;;;;;;;;;;5042658;28;20222;-67
2023/11/13 04:51:32;;;;;;;38.53;18.20;;;;;;;;;;5033162;28;20192;-67
2023/11/13 04:53:58;;;;;;;38.87;20.13;;;;;;;;;;5031118;28;20210;-66
2023/11/13 04:56:23;;;;;;;43.47;19.07;;;;;;;;;;5033182;28;20201;-67
2023/11/13 04:58:48;;;;;;;39.83;19.60;;;;;;;;;;5042806;28;20190;-66
2023/11/13 05:01:15;;;;;;;38.93;19.33;;;;;;;;;;5040221;28;20189;-66
2023/11/13 05:03:40;;;;;;;44.73;19.47;;;;;;;;;;5040754;28;20182;-66
2023/11/13 05:06:13;;;;;;;37.93;19.03;;;;;;;;;;5031060;28;20656;-67
2023/11/13 05:08:38;;;;;;;40.43;18.87;;;;;;;;;;5029588;28;20182;-67
2023/11/13 05:11:06;;;;;;;35.87;18.43;;;;;;;;;;5038724;28;20688;-67
2023/11/13 05:13:31;;;;;;;36.40;18.17;;;;;;;;;;5038774;28;20650;-66
2023/11/13 05:15:57;;;;;;;36.70;17.97;;;;;;;;;;5030466;28;20214;-67
2023/11/13 05:18:22;;;;;;;37.60;18.70;;;;;;;;;;5041667;28;20186;-67
2023/11/13 05:20:47;;;;;;;45.03;18.97;;;;;;;;;;5033207;28;20189;-66
2023/11/13 05:23:13;;;;;;;34.53;18.27;;;;;;;;;;5030702;28;20201;-66
2023/11/13 05:25:39;;;;;;;37.03;19.07;;;;;;;;;;5027800;28;20269;-67
2023/11/13 05:28:06;;;;;;;37.83;18.70;;;;;;;;;;5038418;28;20590;-67
2023/11/13 05:30:33;;;;;;;37.37;19.00;;;;;;;;;;5032607;28;20205;-67
2023/11/13 05:32:59;;;;;;;36.90;19.00;;;;;;;;;;5033683;28;20257;-67
2023/11/13 05:35:24;;;;;;;39.23;18.50;;;;;;;;;;5037202;28;20222;-66
2023/11/13 05:37:49;;;;;;;33.70;18.63;;;;;;;;;;5041697;28;20190;-67
2023/11/13 05:40:16;;;;;;;34.57;17.97;;;;;;;;;;5043618;28;20247;-67
2023/11/13 05:42:41;;;;;;;36.93;19.10;;;;;;;;;;5034057;28;20178;-67
2023/11/13 05:45:07;;;;;;;39.10;17.93;;;;;;;;;;5028329;28;20189;-67
2023/11/13 05:47:33;;;;;;;34.67;18.23;;;;;;;;;;5035441;28;20259;-67
2023/11/13 05:49:58;;;;;;;34.53;17.73;;;;;;;;;;5037261;28;20206;-67
2023/11/13 05:52:23;;;;;;;32.27;18.30;;;;;;;;;;5030981;28;20190;-67
2023/11/13 05:54:50;;;;;;;36.57;17.83;;;;;;;;;;5032519;28;20193;-67
2023/11/13 05:57:16;;;;;;;35.57;17.17;;;;;;;;;;5029865;28;20656;-67
2023/11/13 05:59:41;;;;;;;41.37;17.90;;;;;;;;;;5030840;28;20208;-67
2023/11/13 06:02:07;;;;;;;31.20;17.60;;;;;;;;;;5043371;28;20194;-67
2023/11/13 06:04:35;;;;;;;33.43;17.63;;;;;;;;;;5035305;28;20225;-67
2023/11/13 06:07:00;;;;;;;34.63;18.27;;;;;;;;;;5039992;28;20297;-67
2023/11/13 06:09:26;;;;;;;35.30;18.47;;;;;;;;;;5030250;28;20264;-67
2023/11/13 06:11:51;;;;;;;38.47;18.63;;;;;;;;;;5039264;28;20557;-67
2023/11/13 06:14:17;;;;;;;32.87;17.40;;;;;;;;;;5028724;28;20225;-67
2023/11/13 06:16:43;;;;;;;35.67;17.67;;;;;;;;;;5034563;28;20196;-67
2023/11/13 06:19:08;;;;;;;35.23;18.57;;;;;;;;;;5036026;28;20243;-67
2023/11/13 06:21:34;;;;;;;35.00;18.17;;;;;;;;;;5029185;28;21213;-67
2023/11/13 06:23:59;;;;;;;35.93;16.90;;;;;;;;;;5038378;28;20198;-67
2023/11/13 06:26:25;;;;;;;34.37;17.90;;;;;;;;;;5037949;28;20198;-66
2023/11/13 06:28:50;;;;;;;30.93;17.27;;;;;;;;;;5033163;28;20685;-66
2023/11/13 06:31:21;;;;;;;33.20;17.33;;;;;;;;;;5031067;28;20193;-66
2023/11/13 06:33:47;;;;;;;29.50;17.43;;;;;;;;;;5038135;28;20351;-67
2023/11/13 06:36:14;;;;;;;31.83;17.70;;;;;;;;;;5040296;28;20513;-67
2023/11/13 06:38:40;;;;;;;34.40;17.63;;;;;;;;;;5040108;28;20217;-67
2023/11/13 06:41:07;;;;;;;30.73;16.97;;;;;;;;;;5035251;28;20282;-68
2023/11/13 06:43:32;;;;;;;33.90;17.30;;;;;;;;;;5041600;28;20182;-67
2023/11/13 06:46:03;;;;;;;39.03;18.13;;;;;;;;;;5038943;28;20201;-67
2023/11/13 06:48:29;;;;;;;31.57;17.17;;;;;;;;;;5037590;28;20525;-66
2023/11/13 06:50:54;;;;;;;26.87;16.53;;;;;;;;;;5025954;28;20193;-66
2023/11/13 06:53:20;;;;;;;26.80;16.10;;;;;;;;;;5038244;28;20217;-66
2023/11/13 06:55:46;;;;;;;30.63;16.67;;;;;;;;;;5026127;28;20625;-66
2023/11/13 06:58:11;;;;;;;36.83;17.03;;;;;;;;;;5033523;28;20248;-66
2023/11/13 07:00:37;;;;;;;29.97;17.17;;;;;;;;;;5026124;28;20236;-66
2023/11/13 07:03:04;;;;;;;25.50;16.47;;;;;;;;;;5049142;28;20205;-67
2023/11/13 07:05:31;;;;;;;27.53;16.60;;;;;;;;;;5039142;28;20189;-66
2023/11/13 07:07:56;;;;;;;30.87;17.13;;;;;;;;;;5037889;28;20188;-67
2023/11/13 07:10:22;;;;;;;29.50;17.07;;;;;;;;;;5041703;28;20273;-67
2023/11/13 07:12:50;;;;;;;31.83;17.77;;;;;;;;;;5031399;28;20242;-67
2023/11/13 07:15:16;;;;;;;31.73;17.40;;;;;;;;;;5042698;28;20279;-67
2023/11/13 07:17:41;;;;;;;34.00;17.40;;;;;;;;;;5043567;28;20560;-66
2023/11/13 07:20:09;;;;;;;39.03;19.33;;;;;;;;;;4344186;28;10000672;-66
2023/11/13 07:22:35;;;;;;;41.10;19.00;;;;;;;;;;5035939;28;20190;-67
2023/11/13 07:25:01;;;;;;;39.87;19.23;;;;;;;;;;5038042;28;20193;-66
2023/11/13 07:27:27;;;;;;;34.80;19.10;;;;;;;;;;5034344;28;20651;-66
2023/11/13 07:29:56;;;;;;;37.57;18.60;;;;;;;;;;5043036;28;20548;-66
2023/11/13 07:32:25;;;;;;;34.70;18.07;;;;;;;;;;5039605;28;20281;-66
2023/11/13 07:34:53;;;;;;;40.03;18.73;;;;;;;;;;5035776;28;20502;-67
2023/11/13 07:37:18;;;;;;;36.67;18.70;;;;;;;;;;5040908;28;20619;-67
2023/11/13 07:39:47;;;;;;;39.83;19.03;;;;;;;;;;5030529;28;20202;-67
2023/11/13 07:42:13;;;;;;;33.80;18.63;;;;;;;;;;5043743;28;20213;-66
2023/11/13 07:44:39;;;;;;;37.17;19.77;;;;;;;;;;5042330;28;20193;-67
2023/11/13 07:47:04;;;;;;;36.07;18.87;;;;;;;;;;5038712;28;20224;-67
2023/11/13 07:49:30;;;;;;;33.77;18.73;;;;;;;;;;5041666;28;20201;-66
2023/11/13 07:51:56;;;;;;;42.90;20.43;;;;;;;;;;5030155;28;20280;-67
2023/11/13 07:54:21;;;;;;;40.30;19.43;;;;;;;;;;5031193;28;20726;-67
2023/11/13 07:56:47;;;;;;;40.83;19.30;;;;;;;;;;5038871;28;20190;-66
2023/11/13 07:59:15;;;;;;;46.50;21.07;;;;;;;;;;5030915;28;20230;-67
2023/11/13 08:01:40;;;;;;;43.90;20.83;;;;;;;;;;5039963;28;20695;-67
2023/11/13 08:04:10;;;;;;;47.00;20.93;;;;;;;;;;5036509;28;20227;-66
2023/11/13 08:06:35;;;;;;;47.20;21.87;;;;;;;;;;5035128;28;20736;-66
2023/11/13 08:09:08;;;;;;;49.03;22.23;;;;;;;;;;5032079;28;20202;-66
2023/11/13 08:11:34;;;;;;;56.40;24.23;;;;;;;;;;5039635;28;20518;-66
2023/11/13 08:14:00;;;;;;;50.93;21.30;;;;;;;;;;5033003;28;20253;-67
2023/11/13 08:16:27;;;;;;;54.77;21.77;;;;;;;;;;5039296;28;20216;-67
2023/11/13 08:18:52;;;;;;;58.95;23.38;;;;;;;;;;5040479;28;20197;-67
2023/11/13 08:21:18;;;;;;;61.15;24.27;;;;;;;;;;5038736;28;20332;-67
2023/11/13 08:23:43;;;;;;;57.77;24.37;;;;;;;;;;5038354;28;20230;-67
2023/11/13 08:26:09;;;;;;;60.70;25.52;;;;;;;;;;5031541;28;20201;-67
2023/11/13 08:28:35;;;;;;;70.43;25.80;;;;;;;;;;5024609;28;20218;-67
2023/11/13 08:31:01;;;;;;;68.38;25.58;;;;;;;;;;5037877;28;20571;-68
2023/11/13 08:33:26;;;;;;;74.22;25.92;;;;;;;;;;5043049;28;20237;-67
2023/11/13 08:35:52;;;;;;;66.43;25.90;;;;;;;;;;5037592;28;20286;-67
2023/11/13 08:38:17;;;;;;;65.38;26.42;;;;;;;;;;5030430;28;20406;-68
2023/11/13 08:40:43;;;;;;;69.68;26.83;;;;;;;;;;5034087;28;20192;-68
2023/11/13 08:43:10;;;;;;;71.00;26.65;;;;;;;;;;5035276;28;20712;-67
2023/11/13 08:45:39;;;;;;;75.28;27.10;;;;;;;;;;5038083;28;20190;-67
2023/11/13 08:48:05;;;;;;;65.97;25.13;;;;;;;;;;5036430;28;20211;-67
2023/11/13 08:50:30;;;;;;;67.70;26.87;;;;;;;;;;5038022;28;20627;-67
2023/11/13 08:52:57;;;;;;;73.93;28.05;;;;;;;;;;5032211;28;20319;-67
2023/11/13 08:55:23;;;;;;;60.75;27.15;;;;;;;;;;5045741;28;20222;-67
2023/11/13 08:57:48;;;;;;;73.82;27.50;;;;;;;;;;5032768;28;20275;-67
2023/11/13 09:00:21;;;;;;;67.85;26.52;;;;;;;;;;5032912;28;20293;-67
2023/11/13 09:02:53;;;;;;;56.33;24.63;;;;;;;;;;5036709;28;20621;-68
2023/11/13 09:05:19;;;;;;;53.28;24.52;;;;;;;;;;5036662;28;20582;-67
2023/11/13 09:07:44;;;;;;;52.03;23.52;;;;;;;;;;5032381;28;20202;-69
2023/11/13 09:10:10;;;;;;;59.40;24.50;;;;;;;;;;5037888;28;20282;-68
2023/11/13 09:12:39;;;;;;;53.73;24.83;;;;;;;;;;5030980;28;20653;-68
2023/11/13 09:15:14;;;;;;;54.23;24.70;;;;;;;;;;5035134;28;20218;-68
2023/11/13 09:17:45;;;;;;;54.63;23.17;;;;;;;;;;5037373;28;20211;-69
2023/11/13 09:20:14;;;;;;;54.93;24.30;;;;;;;;;;5027392;28;20618;-71
2023/11/13 09:22:40;;;;;;;52.20;22.93;;;;;;;;;;5029566;28;20193;-72
2023/11/13 09:25:06;;;;;;;50.50;23.37;;;;;;;;;;5018779;28;20695;-71
2023/11/13 09:27:32;;;;;;;54.77;24.07;;;;;;;;;;5037742;28;20222;-72
2023/11/13 09:29:58;;;;;;;50.67;22.50;;;;;;;;;;5027475;28;20225;-72
2023/11/13 09:32:23;;;;;;;52.33;23.27;;;;;;;;;;5027341;28;20331;-72
2023/11/13 09:34:49;;;;;;;56.87;23.40;;;;;;;;;;5027599;28;20221;-72
2023/11/13 09:37:15;;;;;;;49.27;22.27;;;;;;;;;;5040958;28;20197;-72
2023/11/13 09:39:42;;;;;;;49.58;22.80;;;;;;;;;;5034218;28;20209;-71
2023/11/13 09:42:18;;;;;;;52.05;20.98;;;;;;;;;;5041456;28;20240;-71
2023/11/13 09:44:47;;;;;;;43.05;21.23;;;;;;;;;;5044681;28;20267;-72
2023/11/13 09:47:16;;;;;;;42.05;20.23;;;;;;;;;;5034973;28;20188;-71
2023/11/13 09:49:45;;;;;;;48.65;21.58;;;;;;;;;;5040983;28;20185;-71
2023/11/13 09:52:12;;;;;;;42.22;20.58;;;;;;;;;;5041431;28;20205;-71
2023/11/13 09:54:38;;;;;;;38.78;20.00;;;;;;;;;;5028752;28;20198;-71
2023/11/13 09:57:09;;;;;;;47.05;19.88;;;;;;;;;;5033958;28;20305;-71
2023/11/13 09:59:36;;;;;;;40.90;20.73;;;;;;;;;;5032713;28;20190;-71
2023/11/13 10:02:07;;;;;;;43.15;20.20;;;;;;;;;;5031598;28;20713;-71
2023/11/13 10:04:34;;;;;;;33.53;18.50;;;;;;;;;;5031548;28;20174;-72
2023/11/13 10:07:01;;;;;;;33.58;18.75;;;;;;;;;;5032134;28;20186;-73
2023/11/13 10:09:27;;;;;;;34.15;18.88;;;;;;;;;;5048506;28;20826;-72
2023/11/13 10:11:53;;;;;;;33.92;19.25;;;;;;;;;;5046412;28;20401;-73
2023/11/13 10:14:18;;;;;;;32.92;18.02;;;;;;;;;;5030505;28;20267;-72
2023/11/13 10:16:56;;;;;;;30.23;18.17;;;;;;;;;;5033985;28;20193;-73
2023/11/13 10:19:22;;;;;;;35.08;17.65;;;;;;;;;;5034301;28;20186;-72
2023/11/13 10:21:48;;;;;;;30.98;16.20;;;;;;;;;;5029875;28;20178;-72
2023/11/13 10:24:24;;;;;;;28.33;16.80;;;;;;;;;;5038680;28;20188;-72
2023/11/13 10:26:55;;;;;;;31.88;17.60;;;;;;;;;;5032223;28;20263;-72
2023/11/13 10:29:27;;;;;;;32.20;17.38;;;;;;;;;;5030958;28;20209;-72
2023/11/13 10:32:02;;;;;;;31.25;15.73;;;;;;;;;;5034536;28;20273;-72
2023/11/13 10:34:45;;;;;;;28.55;16.15;;;;;;;;;;5039387;28;20220;-72
2023/11/13 10:37:12;;;;;;;31.08;16.27;;;;;;;;;;5028013;28;20717;-72
2023/11/13 10:39:42;;;;;;;27.75;17.17;;;;;;;;;;5030455;28;20213;-71
2023/11/13 10:42:28;;;;;;;27.90;15.95;;;;;;;;;;5024879;28;20233;-71
2023/11/13 10:44:58;;;;;;;29.95;16.00;;;;;;;;;;5041073;28;20185;-71
2023/11/13 10:47:26;;;;;;;31.27;16.48;;;;;;;;;;5046595;28;20296;-71
2023/11/13 10:49:56;;;;;;;31.08;17.88;;;;;;;;;;5037672;28;20217;-71
2023/11/13 10:52:23;;;;;;;26.83;16.33;;;;;;;;;;5039086;28;20186;-71
2023/11/13 10:54:51;;;;;;;33.15;16.55;;;;;;;;;;5041735;28;20516;-71
2023/11/13 10:57:22;;;;;;;32.70;15.50;;;;;;;;;;5035169;28;20185;-71
2023/11/13 10:59:52;;;;;;;30.58;17.08;;;;;;;;;;5039790;28;20208;-71
2023/11/13 11:02:36;;;;;;;34.28;16.73;;;;;;;;;;5031633;28;20186;-71
2023/11/13 11:05:10;;;;;;;29.88;16.33;;;;;;;;;;5032042;28;20560;-71
2023/11/13 11:07:37;;;;;;;29.45;16.65;;;;;;;;;;5041384;28;20276;-71
2023/11/13 11:10:05;;;;;;;36.17;16.95;;;;;;;;;;5037805;28;20196;-71
2023/11/13 11:12:43;;;;;;;34.70;16.58;;;;;;;;;;5040047;28;20201;-71
2023/11/13 11:15:44;;;;;;;27.38;14.57;;;;;;;;;;5034214;28;20228;-71
2023/11/13 11:18:42;;;;;;;26.17;13.88;;;;;;;;;;5043435;28;20216;-71
2023/11/13 11:21:07;;;;;;;30.30;15.13;;;;;;;;;;5032912;28;20551;-69
2023/11/13 11:23:55;;;;;;;27.75;13.85;;;;;;;;;;5044250;28;20239;-71
2023/11/13 11:26:20;;;;;;;30.23;14.25;;;;;;;;;;5030471;28;20210;-70
2023/11/13 11:28:52;;;;;;;28.75;13.63;;;;;;;;;;5031538;28;20563;-70
2023/11/13 11:31:34;;;;;;;32.53;13.50;;;;;;;;;;5042544;28;20277;-70
2023/11/13 11:34:00;;;;;;;24.30;13.02;;;;;;;;;;5038374;28;20229;-71
2023/11/13 11:36:29;;;;;;;27.83;13.18;;;;;;;;;;5039405;28;20211;-69
2023/11/13 11:39:18;;;;;;;23.30;13.38;;;;;;;;;;5035427;28;20289;-70
2023/11/13 11:41:45;;;;;;;23.70;13.98;;;;;;;;;;5049461;28;20393;-70
2023/11/13 11:44:15;;;;;;;24.38;14.77;;;;;;;;;;5051030;28;20190;-70
2023/11/13 11:46:51;;;;;;;26.90;15.38;;;;;;;;;;5031461;28;20665;-71
2023/11/13 11:49:23;;;;;;;21.20;13.98;;;;;;;;;;5030836;28;20210;-70
2023/11/13 11:51:51;;;;;;;19.48;13.85;;;;;;;;;;5024764;28;20196;-70
2023/11/13 11:54:16;;;;;;;18.67;12.95;;;;;;;;;;5037427;28;20223;-70
2023/11/13 11:57:03;;;;;;;19.60;13.38;;;;;;;;;;5038484;28;20272;-70
2023/11/13 11:59:30;;;;;;;21.80;13.23;;;;;;;;;;5036079;28;20247;-70
2023/11/13 12:01:59;;;;;;;19.67;13.35;;;;;;;;;;5039279;28;20278;-71
2023/11/13 12:04:26;;;;;;;18.20;11.95;;;;;;;;;;5044379;28;20177;-71
2023/11/13 12:06:52;;;;;;;19.05;11.73;;;;;;;;;;5032750;28;20190;-71
2023/11/13 12:09:21;;;;;;;15.70;10.55;;;;;;;;;;5031208;28;20240;-71
2023/11/13 12:11:48;;;;;;;13.10;9.40;;;;;;;;;;5036746;28;20197;-71
2023/11/13 12:14:14;;;;;;;13.82;9.55;;;;;;;;;;5032149;28;20225;-71
2023/11/13 12:16:40;;;;;;;13.85;8.25;;;;;;;;;;5033051;28;20894;-71
2023/11/13 12:19:06;;;;;;;11.48;8.32;;;;;;;;;;5035948;28;20186;-71
2023/11/13 12:21:33;;;;;;;12.15;8.48;;;;;;;;;;5034787;28;20228;-70
2023/11/13 12:24:00;;;;;;;12.68;7.95;;;;;;;;;;5041152;28;20613;-71
2023/11/13 12:26:26;;;;;;;9.88;7.47;;;;;;;;;;5029629;28;20680;-71
2023/11/13 12:28:51;;;;;;;10.27;8.55;;;;;;;;;;5037544;28;20181;-71
2023/11/13 12:31:20;;;;;;;9.68;7.45;;;;;;;;;;5030747;28;20206;-71
2023/11/13 12:33:46;;;;;;;13.80;7.05;;;;;;;;;;5045642;28;20226;-70
2023/11/13 12:36:13;;;;;;;10.10;7.15;;;;;;;;;;5038364;28;20190;-71
2023/11/13 12:38:39;;;;;;;13.40;7.55;;;;;;;;;;5040330;28;20193;-70
2023/11/13 12:41:05;;;;;;;11.15;7.55;;;;;;;;;;5031274;28;20541;-70
2023/11/13 12:43:31;;;;;;;8.25;6.85;;;;;;;;;;5026733;28;20187;-70
2023/11/13 12:45:57;;;;;;;10.00;7.40;;;;;;;;;;5045827;28;20189;-71
2023/11/13 12:48:22;;;;;;;10.32;7.35;;;;;;;;;;5040736;28;20306;-70
2023/11/13 12:50:48;;;;;;;9.52;8.13;;;;;;;;;;5042069;28;20198;-70
2023/11/13 12:53:18;;;;;;;11.55;7.88;;;;;;;;;;5036443;28;20709;-70
2023/11/13 12:55:46;;;;;;;9.30;7.75;;;;;;;;;;5024839;28;20198;-70
2023/11/13 12:58:14;;;;;;;10.77;8.27;;;;;;;;;;5030132;28;20194;-71
2023/11/13 13:00:40;;;;;;;12.85;9.23;;;;;;;;;;5027482;28;20354;-71
2023/11/13 13:03:07;;;;;;;14.35;9.35;;;;;;;;;;5026176;28;20683;-71
2023/11/13 13:05:33;;;;;;;11.10;9.32;;;;;;;;;;5026937;28;20190;-71
2023/11/13 13:08:02;;;;;;;11.57;10.13;;;;;;;;;;5025159;28;20622;-71
2023/11/13 13:10:30;;;;;;;12.75;10.25;;;;;;;;;;5026064;28;20337;-71
2023/11/13 13:12:57;;;;;;;13.60;10.50;;;;;;;;;;5031029;28;20194;-71
2023/11/13 13:15:26;;;;;;;15.70;11.52;;;;;;;;;;5025187;28;20214;-71
2023/11/13 13:17:52;;;;;;;16.58;11.40;;;;;;;;;;5024391;28;20337;-71
2023/11/13 13:20:29;;;;;;;13.65;11.60;;;;;;;;;;5026179;28;20182;-72
2023/11/13 13:22:56;;;;;;;17.23;13.10;;;;;;;;;;5024361;28;20225;-71
2023/11/13 13:25:25;;;;;;;14.85;12.80;;;;;;;;;;5026659;28;20678;-71
2023/11/13 13:27:52;;;;;;;17.55;13.30;;;;;;;;;;5025732;28;20244;-72
2023/11/13 13:30:18;;;;;;;14.98;12.88;;;;;;;;;;5024580;28;20228;-71
2023/11/13 13:32:46;;;;;;;16.52;12.32;;;;;;;;;;5023091;28;20338;-71
2023/11/13 13:35:11;;;;;;;14.65;11.95;;;;;;;;;;5025150;28;20615;-71
2023/11/13 13:37:38;;;;;;;16.08;11.82;;;;;;;;;;5025356;28;20336;-71
2023/11/13 13:40:10;;;;;;;17.88;12.77;;;;;;;;;;5026433;28;20194;-71
2023/11/13 13:42:40;;;;;;;14.95;12.23;;;;;;;;;;5037684;28;20178;-71
2023/11/13 13:45:14;;;;;;;16.30;12.30;;;;;;;;;;5024407;28;20443;-72
2023/11/13 13:47:46;;;;;;;14.98;11.80;;;;;;;;;;5025553;28;20200;-71
2023/11/13 13:50:16;;;;;;;12.23;9.85;;;;;;;;;;5024887;28;20198;-71
2023/11/13 13:52:42;;;;;;;14.82;10.30;;;;;;;;;;5026246;28;20191;-72
2023/11/13 13:55:11;;;;;;;14.77;10.60;;;;;;;;;;5024358;28;20321;-71
2023/11/13 13:57:39;;;;;;;13.27;9.27;;;;;;;;;;5023195;28;20238;-72
2023/11/13 14:00:10;;;;;;;11.80;8.93;;;;;;;;;;5024260;28;20640;-72
2023/11/13 14:02:35;;;;;;;14.65;8.15;;;;;;;;;;5026779;28;20219;-71
2023/11/13 14:05:00;;;;;;;13.02;7.30;;;;;;;;;;5029552;28;20194;-71
2023/11/13 14:07:26;;;;;;;10.75;7.60;;;;;;;;;;5032674;28;20268;-70
2023/11/13 14:09:51;;;;;;;10.93;7.00;;;;;;;;;;5031619;28;20193;-70
2023/11/13 14:12:17;;;;;;;11.07;6.55;;;;;;;;;;5029436;28;20201;-70
2023/11/13 14:14:43;;;;;;;9.05;5.90;;;;;;;;;;5031191;28;20225;-70
2023/11/13 14:17:09;;;;;;;8.65;5.72;;;;;;;;;;5029854;28;20204;-71
2023/11/13 14:19:36;;;;;;;12.57;5.40;;;;;;;;;;5026944;28;20183;-71